Impacts TAF Board
For situational awareness. Not to be used for flight planning purposes.
IDs:

KORD - Chicago/O'Hare Intl, IL, US

Issued at 2323 UTC 11 Dec 2018
Updated at 0233 UTC 12 Dec 2018
Potential Impact None Slight Moderate High
Time<<12/15Z 12/16Z 12/17Z 12/18Z 12/19Z 12/20Z 12/21Z 12/22Z 12/23Z 13/00Z 13/01Z 13/02Z 13/03Z>>
Type PRVL PRVL PRVL PRVL PRVL PRVL PRVL PRVL PRVL PRVL PRVL PRVL PRVL
VIS >6 >6 >6 >6 >6 >6 >6 >6 >6 >6 >6 >6 >6
CIG 8 8 8 8 20 20 20 20 20 20 20 25 25
Cover OVC OVC OVC OVC OVC OVC OVC OVC OVC OVC OVC BKN BKN
FltCat IFR IFR IFR IFR MVFR MVFR MVFR MVFR MVFR MVFR MVFR MVFR MVFR
WX -DZ -DZ -DZ -DZ -- -- -- -- -- -- -- -- --
WDir 200 200 200 200 230 230 230 230 230 230 230 250 250
WSpd 9 9 9 9 13 13 13 13 13 13 13 7 7
WGst -- -- -- -- 20 20 20 20 20 20 20 -- --
Raw TAF
KORD 112323Z 1200/1306 12007KT P6SM SCT150 BKN200
  FM121200 17008KT 5SM -SN BR OVC015
  PROB30 1212/1213 -FZDZ
  FM121500 20009KT P6SM -DZ OVC008
  FM121900 23013G20KT P6SM OVC020
  FM130200 25007KT P6SM BKN025


METAR Board
Radar Display
Forecast Discussion
For situational awareness. Not to be used for flight planning purposes.